createdAt,value
2016-06-29T00:00:30.492Z,0
2016-06-29T00:01:30.002Z,0
2016-06-29T00:02:30.560Z,0
2016-06-29T00:03:31.241Z,0
2016-06-29T00:04:31.224Z,0
2016-06-29T00:05:31.244Z,0
2016-06-29T00:06:30.675Z,0
2016-06-29T00:07:30.688Z,0
2016-06-29T00:08:31.940Z,0
2016-06-29T00:09:31.974Z,0
2016-06-29T00:10:31.400Z,0
2016-06-29T00:11:31.445Z,0
2016-06-29T00:12:30.819Z,0
2016-06-29T00:13:32.082Z,0
2016-06-29T00:14:32.105Z,0
2016-06-29T00:15:32.142Z,0
2016-06-29T00:16:30.919Z,0
2016-06-29T00:17:31.600Z,0
2016-06-29T00:18:32.210Z,0
2016-06-29T00:19:37.369Z,0
2016-06-29T00:20:31.053Z,0
2016-06-29T00:21:31.703Z,0
2016-06-29T00:22:31.845Z,0
2016-06-29T00:23:30.496Z,0
2016-06-29T00:24:31.859Z,0
2016-06-29T00:25:31.864Z,0
2016-06-29T00:26:31.206Z,0
2016-06-29T00:27:31.935Z,0
2016-06-29T00:28:31.943Z,0
2016-06-29T00:29:31.281Z,0
2016-06-29T00:30:31.960Z,0
2016-06-29T00:31:31.970Z,0
2016-06-29T00:32:30.735Z,0
2016-06-29T00:33:32.092Z,0
2016-06-29T00:34:32.087Z,0
2016-06-29T00:35:32.035Z,0
2016-06-29T00:36:31.507Z,0
2016-06-29T00:37:32.738Z,0
2016-06-29T00:38:32.212Z,0
2016-06-29T00:39:31.897Z,0
2016-06-29T00:40:30.971Z,0
2016-06-29T00:41:32.830Z,0
2016-06-29T00:42:31.778Z,0
2016-06-29T00:43:33.051Z,0
2016-06-29T00:44:32.924Z,0
2016-06-29T00:45:31.801Z,0
2016-06-29T00:46:32.958Z,0
2016-06-29T00:47:31.819Z,0
2016-06-29T00:48:32.574Z,0
2016-06-29T00:49:31.965Z,0
2016-06-29T00:50:32.456Z,0
2016-06-29T00:51:31.251Z,0
2016-06-29T00:52:32.492Z,0
2016-06-29T00:53:32.583Z,0
2016-06-29T00:54:32.562Z,0
2016-06-29T00:55:32.627Z,0
2016-06-29T00:56:32.116Z,0
2016-06-29T00:57:33.417Z,0
2016-06-29T00:58:32.673Z,0
2016-06-29T00:59:32.081Z,0
2016-06-29T01:00:33.452Z,0
2016-06-29T01:01:32.836Z,0
2016-06-29T01:02:32.190Z,0
2016-06-29T01:03:33.503Z,0
2016-06-29T01:04:32.914Z,0
2016-06-29T01:05:32.898Z,0
2016-06-29T01:06:32.919Z,0
2016-06-29T01:07:33.596Z,0
2016-06-29T01:08:33.057Z,0
2016-06-29T01:09:31.706Z,0
2016-06-29T01:10:33.035Z,0
2016-06-29T01:11:33.650Z,0
2016-06-29T01:12:32.428Z,0
2016-06-29T01:13:32.555Z,0
2016-06-29T01:14:32.743Z,0
2016-06-29T01:15:33.103Z,0
2016-06-29T01:16:33.352Z,0
2016-06-29T01:17:33.345Z,0
2016-06-29T01:18:33.370Z,0
2016-06-29T01:19:32.006Z,0
2016-06-29T01:20:32.761Z,0
2016-06-29T01:21:32.910Z,0
2016-06-29T01:22:32.792Z,0
2016-06-29T01:23:33.414Z,0
2016-06-29T01:24:33.990Z,0
2016-06-29T01:25:32.132Z,0
2016-06-29T01:26:34.029Z,0
2016-06-29T01:27:33.549Z,0
2016-06-29T01:28:32.926Z,0
2016-06-29T01:29:34.095Z,0
2016-06-29T01:30:34.131Z,0
2016-06-29T01:31:33.517Z,0
2016-06-29T01:32:33.567Z,0
2016-06-29T01:33:32.372Z,0
2016-06-29T01:34:32.390Z,0
2016-06-29T01:35:33.045Z,0
2016-06-29T01:36:32.420Z,0
2016-06-29T01:37:33.681Z,0
2016-06-29T01:38:34.359Z,0
2016-06-29T01:39:33.736Z,0
2016-06-29T01:40:33.762Z,0
2016-06-29T01:41:33.794Z,0
2016-06-29T01:42:33.824Z,0
2016-06-29T01:43:33.851Z,0
2016-06-29T01:44:34.508Z,0
2016-06-29T01:45:34.514Z,0
2016-06-29T01:46:33.911Z,0
2016-06-29T01:47:33.497Z,0
2016-06-29T01:48:33.498Z,0
2016-06-29T01:49:33.411Z,0
2016-06-29T01:50:34.030Z,0
2016-06-29T01:51:32.903Z,0
2016-06-29T01:52:34.698Z,0
2016-06-29T01:53:34.754Z,0
2016-06-29T01:54:34.137Z,0
2016-06-29T01:55:34.781Z,0
2016-06-29T01:56:34.185Z,0
2016-06-29T01:57:33.605Z,0
2016-06-29T01:58:34.244Z,0
2016-06-29T01:59:34.253Z,0
2016-06-29T02:00:34.912Z,0
2016-06-29T02:01:34.328Z,0
2016-06-29T02:02:33.740Z,0
2016-06-29T02:03:34.398Z,0
2016-06-29T02:04:33.806Z,0
2016-06-29T02:05:33.801Z,0
2016-06-29T02:06:33.827Z,0
2016-06-29T02:07:34.472Z,0
2016-06-29T02:08:34.491Z,0
2016-06-29T02:09:34.526Z,0
2016-06-29T02:10:34.543Z,0
2016-06-29T02:11:33.962Z,0
2016-06-29T02:12:34.638Z,0
2016-06-29T02:13:33.386Z,0
2016-06-29T02:14:35.381Z,0
2016-06-29T02:15:34.675Z,0
2016-06-29T02:16:35.409Z,0
2016-06-29T02:17:34.737Z,0
2016-06-29T02:18:35.368Z,0
2016-06-29T02:19:34.235Z,0
2016-06-29T02:20:34.972Z,0
2016-06-29T02:21:35.447Z,0
2016-06-29T02:22:34.233Z,0
2016-06-29T02:23:34.889Z,0
2016-06-29T02:24:34.987Z,0
2016-06-29T02:25:34.990Z,0
2016-06-29T02:26:35.582Z,0
2016-06-29T02:27:34.508Z,0
2016-06-29T02:28:35.107Z,0
2016-06-29T02:29:35.063Z,0
2016-06-29T02:30:35.084Z,0
2016-06-29T02:31:35.762Z,0
2016-06-29T02:32:33.893Z,0
2016-06-29T02:33:35.841Z,0
2016-06-29T02:34:35.813Z,0
2016-06-29T02:35:35.429Z,0
2016-06-29T02:36:35.233Z,0
2016-06-29T02:37:34.634Z,0
2016-06-29T02:38:35.313Z,0
2016-06-29T02:39:35.936Z,0
2016-06-29T02:40:34.725Z,0
2016-06-29T02:41:34.741Z,0
2016-06-29T02:42:35.995Z,0
2016-06-29T02:43:34.782Z,0
2016-06-29T02:44:34.817Z,0
2016-06-29T02:45:34.242Z,0
2016-06-29T02:46:34.940Z,0
2016-06-29T02:47:35.604Z,0
2016-06-29T02:48:34.918Z,4
2016-06-29T02:49:35.601Z,4
2016-06-29T02:50:34.376Z,0
2016-06-29T02:51:35.685Z,4
2016-06-29T02:52:35.659Z,4
2016-06-29T02:53:35.672Z,8
2016-06-29T02:54:36.518Z,4
2016-06-29T02:55:35.749Z,4
2016-06-29T02:56:35.750Z,8
2016-06-29T02:57:35.158Z,8
2016-06-29T02:58:35.191Z,8
2016-06-29T02:59:35.817Z,8
2016-06-29T03:00:35.237Z,8
2016-06-29T03:01:36.618Z,8
2016-06-29T03:02:35.917Z,8
2016-06-29T03:03:35.957Z,8
2016-06-29T03:04:36.666Z,8
2016-06-29T03:05:36.005Z,8
2016-06-29T03:06:35.998Z,8
2016-06-29T03:07:36.693Z,12
2016-06-29T03:08:36.067Z,12
2016-06-29T03:09:36.731Z,12
2016-06-29T03:10:36.109Z,12
2016-06-29T03:11:36.156Z,16
2016-06-29T03:12:36.186Z,16
2016-06-29T03:13:35.555Z,16
2016-06-29T03:14:35.666Z,12
2016-06-29T03:15:36.255Z,20
2016-06-29T03:16:35.717Z,24
2016-06-29T03:17:36.918Z,20
2016-06-29T03:18:36.930Z,20
2016-06-29T03:19:36.977Z,20
2016-06-29T03:20:36.969Z,24
2016-06-29T03:21:36.401Z,20
2016-06-29T03:22:36.410Z,20
2016-06-29T03:23:35.839Z,20
2016-06-29T03:24:35.894Z,20
2016-06-29T03:25:35.888Z,16
2016-06-29T03:26:36.511Z,20
2016-06-29T03:27:37.213Z,20
2016-06-29T03:28:37.175Z,20
2016-06-29T03:29:36.002Z,20
2016-06-29T03:30:36.642Z,20
2016-06-29T03:31:36.656Z,24
2016-06-29T03:32:37.286Z,24
2016-06-29T03:33:36.078Z,24
2016-06-29T03:34:36.105Z,28
2016-06-29T03:35:36.803Z,32
2016-06-29T03:36:37.458Z,44
2016-06-29T03:37:36.181Z,68
2016-06-29T03:38:36.825Z,84
2016-06-29T03:39:35.707Z,84
2016-06-29T03:40:36.926Z,96
2016-06-29T03:41:36.267Z,128
2016-06-29T03:42:36.320Z,160
2016-06-29T03:43:36.962Z,168
2016-06-29T03:44:36.993Z,164
2016-06-29T03:45:36.369Z,152
2016-06-29T03:46:36.503Z,160
2016-06-29T03:47:37.054Z,152
2016-06-29T03:48:37.076Z,120
2016-06-29T03:49:36.527Z,100
2016-06-29T03:50:37.143Z,80
2016-06-29T03:51:37.155Z,72
2016-06-29T03:52:36.653Z,76
2016-06-29T03:53:36.688Z,72
2016-06-29T03:54:37.218Z,76
2016-06-29T03:55:37.252Z,68
2016-06-29T03:56:37.268Z,64
2016-06-29T03:57:37.292Z,60
2016-06-29T03:58:37.950Z,56
2016-06-29T03:59:37.378Z,48
2016-06-29T04:00:37.995Z,52
2016-06-29T04:01:37.400Z,56
2016-06-29T04:02:37.433Z,60
2016-06-29T04:03:37.464Z,60
2016-06-29T04:04:36.854Z,48
2016-06-29T04:05:37.505Z,52
2016-06-29T04:06:36.905Z,36
2016-06-29T04:07:37.557Z,40
2016-06-29T04:08:38.355Z,48
2016-06-29T04:09:38.375Z,44
2016-06-29T04:10:38.242Z,48
2016-06-29T04:11:37.043Z,52
2016-06-29T04:12:37.066Z,60
2016-06-29T04:13:37.082Z,60
2016-06-29T04:14:36.599Z,68
2016-06-29T04:15:37.739Z,80
2016-06-29T04:16:36.638Z,104
2016-06-29T04:17:37.184Z,100
2016-06-29T04:18:37.841Z,52
2016-06-29T04:19:37.233Z,56
2016-06-29T04:20:38.598Z,76
2016-06-29T04:21:37.925Z,88
2016-06-29T04:22:37.334Z,92
2016-06-29T04:23:37.937Z,88
2016-06-29T04:24:37.391Z,120
2016-06-29T04:25:37.993Z,172
2016-06-29T04:26:37.410Z,204
2016-06-29T04:27:38.711Z,224
2016-06-29T04:28:37.475Z,228
2016-06-29T04:29:37.505Z,280
2016-06-29T04:30:38.761Z,340
2016-06-29T04:31:38.783Z,304
2016-06-29T04:32:38.170Z,268
2016-06-29T04:33:38.323Z,308
2016-06-29T04:34:37.625Z,316
2016-06-29T04:35:38.959Z,312
2016-06-29T04:36:37.039Z,328
2016-06-29T04:37:37.682Z,400
2016-06-29T04:38:38.672Z,424
2016-06-29T04:39:38.405Z,372
2016-06-29T04:40:39.151Z,396
2016-06-29T04:41:39.161Z,408
2016-06-29T04:42:37.847Z,412
2016-06-29T04:43:38.548Z,508
2016-06-29T04:44:38.579Z,504
2016-06-29T04:45:37.258Z,488
2016-06-29T04:46:38.610Z,496
2016-06-29T04:47:38.808Z,524
2016-06-29T04:48:38.612Z,524
2016-06-29T04:49:39.229Z,524
2016-06-29T04:50:38.626Z,476
2016-06-29T04:51:38.039Z,496
2016-06-29T04:52:39.291Z,496
2016-06-29T04:53:38.719Z,584
2016-06-29T04:54:38.169Z,544
2016-06-29T04:55:38.434Z,424
2016-06-29T04:56:39.507Z,288
2016-06-29T04:57:38.253Z,288
2016-06-29T04:58:39.437Z,372
2016-06-29T04:59:38.221Z,524
2016-06-29T05:00:38.877Z,584
2016-06-29T05:01:38.470Z,420
2016-06-29T05:02:39.642Z,396
2016-06-29T05:03:39.677Z,468
2016-06-29T05:04:38.996Z,540
2016-06-29T05:05:39.015Z,572
2016-06-29T05:06:37.794Z,532
2016-06-29T05:07:39.066Z,476
2016-06-29T05:08:39.085Z,388
2016-06-29T05:09:38.157Z,320
2016-06-29T05:10:39.764Z,272
2016-06-29T05:11:39.172Z,264
2016-06-29T05:12:38.550Z,264
2016-06-29T05:13:38.583Z,252
2016-06-29T05:14:39.224Z,244
2016-06-29T05:15:39.250Z,232
2016-06-29T05:16:39.272Z,228
2016-06-29T05:17:38.701Z,228
2016-06-29T05:18:39.357Z,228
2016-06-29T05:19:39.364Z,224
2016-06-29T05:20:39.397Z,232
2016-06-29T05:21:40.134Z,244
2016-06-29T05:22:38.807Z,264
2016-06-29T05:23:38.856Z,280
2016-06-29T05:24:40.115Z,296
2016-06-29T05:25:40.135Z,324
2016-06-29T05:26:39.549Z,340
2016-06-29T05:27:38.921Z,336
2016-06-29T05:28:38.348Z,396
2016-06-29T05:29:38.375Z,520
2016-06-29T05:30:39.636Z,564
2016-06-29T05:31:39.664Z,484
2016-06-29T05:32:39.688Z,464
2016-06-29T05:33:39.781Z,412
2016-06-29T05:34:39.123Z,340
2016-06-29T05:35:39.135Z,288
2016-06-29T05:36:39.836Z,268
2016-06-29T05:37:39.190Z,256
2016-06-29T05:38:39.245Z,252
2016-06-29T05:39:39.264Z,252
2016-06-29T05:40:39.262Z,256
2016-06-29T05:41:39.279Z,260
2016-06-29T05:42:40.054Z,264
2016-06-29T05:43:40.070Z,276
2016-06-29T05:44:40.080Z,292
2016-06-29T05:45:38.776Z,300
2016-06-29T05:46:40.075Z,308
2016-06-29T05:47:39.436Z,304
2016-06-29T05:48:39.514Z,304
2016-06-29T05:49:40.267Z,312
2016-06-29T05:50:40.279Z,304
2016-06-29T05:51:40.919Z,300
2016-06-29T05:52:40.308Z,280
2016-06-29T05:53:40.340Z,296
2016-06-29T05:54:39.624Z,320
2016-06-29T05:55:39.741Z,364
2016-06-29T05:56:39.733Z,444
2016-06-29T05:57:39.075Z,540
2016-06-29T05:58:40.402Z,704
2016-06-29T05:59:40.461Z,684
2016-06-29T06:00:41.084Z,768
2016-06-29T06:01:40.499Z,736
2016-06-29T06:02:40.223Z,876
2016-06-29T06:03:40.507Z,948
2016-06-29T06:04:40.511Z,988
2016-06-29T06:05:40.125Z,928
2016-06-29T06:06:40.084Z,1000
2016-06-29T06:07:39.951Z,964
2016-06-29T06:08:39.572Z,908
2016-06-29T06:09:40.678Z,808
2016-06-29T06:10:39.613Z,696
2016-06-29T06:11:40.220Z,672
2016-06-29T06:12:40.694Z,668
2016-06-29T06:13:41.337Z,648
2016-06-29T06:14:41.371Z,532
2016-06-29T06:15:40.165Z,540
2016-06-29T06:16:41.416Z,712
2016-06-29T06:17:41.431Z,956
2016-06-29T06:18:41.496Z,1008
2016-06-29T06:19:39.704Z,948
2016-06-29T06:20:40.935Z,860
2016-06-29T06:21:40.935Z,576
2016-06-29T06:22:39.788Z,424
2016-06-29T06:23:40.977Z,340
2016-06-29T06:24:41.009Z,296
2016-06-29T06:25:41.107Z,292
2016-06-29T06:26:40.429Z,308
2016-06-29T06:27:41.129Z,324
2016-06-29T06:28:40.547Z,336
2016-06-29T06:29:40.634Z,336
2016-06-29T06:30:40.575Z,328
2016-06-29T06:31:40.660Z,320
2016-06-29T06:32:41.238Z,320
2016-06-29T06:33:41.237Z,316
2016-06-29T06:34:41.306Z,312
2016-06-29T06:35:40.660Z,316
2016-06-29T06:36:40.700Z,316
2016-06-29T06:37:40.807Z,320
2016-06-29T06:38:41.342Z,324
2016-06-29T06:39:41.387Z,316
2016-06-29T06:40:41.001Z,316
2016-06-29T06:41:41.446Z,308
2016-06-29T06:42:41.462Z,308
2016-06-29T06:43:41.029Z,308
2016-06-29T06:44:40.411Z,312
2016-06-29T06:45:40.915Z,312
2016-06-29T06:46:42.184Z,320
2016-06-29T06:47:41.052Z,324
2016-06-29T06:48:42.230Z,324
2016-06-29T06:49:42.253Z,320
2016-06-29T06:50:42.287Z,312
2016-06-29T06:51:40.552Z,312
2016-06-29T06:52:41.131Z,308
2016-06-29T06:53:41.749Z,308
2016-06-29T06:54:41.198Z,312
2016-06-29T06:55:41.798Z,308
2016-06-29T06:56:41.805Z,312
2016-06-29T06:57:41.846Z,308
2016-06-29T06:58:41.863Z,316
2016-06-29T06:59:41.300Z,320
2016-06-29T07:00:42.572Z,320
2016-06-29T07:01:41.991Z,328
2016-06-29T07:02:42.616Z,348
2016-06-29T07:03:41.998Z,332
2016-06-29T07:04:42.393Z,312
2016-06-29T07:05:41.427Z,312
2016-06-29T07:06:42.097Z,316
2016-06-29T07:07:42.728Z,320
2016-06-29T07:08:42.762Z,332
2016-06-29T07:09:42.176Z,336
2016-06-29T07:10:41.548Z,328
2016-06-29T07:11:41.577Z,344
2016-06-29T07:12:42.867Z,408
2016-06-29T07:13:42.274Z,504
2016-06-29T07:14:41.671Z,628
2016-06-29T07:15:41.068Z,592
2016-06-29T07:16:41.730Z,324
2016-06-29T07:17:42.999Z,364
2016-06-29T07:18:41.781Z,488
2016-06-29T07:19:42.423Z,560
2016-06-29T07:20:41.847Z,408
2016-06-29T07:21:43.183Z,424
2016-06-29T07:22:43.206Z,400
2016-06-29T07:23:42.515Z,384
2016-06-29T07:24:43.210Z,368
2016-06-29T07:25:42.617Z,752
2016-06-29T07:26:42.633Z,848
2016-06-29T07:27:41.390Z,476
2016-06-29T07:28:42.683Z,620
2016-06-29T07:29:42.106Z,1068
2016-06-29T07:30:42.076Z,1276
2016-06-29T07:31:42.746Z,1508
2016-06-29T07:32:42.150Z,588
2016-06-29T07:33:42.341Z,456
2016-06-29T07:34:42.929Z,480
2016-06-29T07:35:42.310Z,644
2016-06-29T07:36:42.237Z,496
2016-06-29T07:37:43.550Z,460
2016-06-29T07:38:43.023Z,400
2016-06-29T07:39:43.091Z,356
2016-06-29T07:40:43.703Z,384
2016-06-29T07:41:43.092Z,380
2016-06-29T07:42:42.530Z,380
2016-06-29T07:43:42.431Z,388
2016-06-29T07:44:42.452Z,396
2016-06-29T07:45:42.529Z,404
2016-06-29T07:46:43.888Z,412
2016-06-29T07:47:43.297Z,472
2016-06-29T07:48:43.279Z,436
2016-06-29T07:49:42.575Z,492
2016-06-29T07:50:43.310Z,444
2016-06-29T07:51:43.317Z,436
2016-06-29T07:52:42.762Z,464
2016-06-29T07:53:43.297Z,440
2016-06-29T07:54:42.724Z,444
2016-06-29T07:55:42.736Z,464
2016-06-29T07:56:44.009Z,456
2016-06-29T07:57:42.802Z,576
2016-06-29T07:58:42.824Z,824
2016-06-29T07:59:43.469Z,1224
2016-06-29T08:00:44.146Z,644
2016-06-29T08:01:43.753Z,708
2016-06-29T08:02:43.132Z,616
2016-06-29T08:03:43.145Z,772
2016-06-29T08:04:44.231Z,1572
2016-06-29T08:05:43.063Z,1608
2016-06-29T08:06:44.285Z,1204
2016-06-29T08:07:44.306Z,1564
2016-06-29T08:08:43.833Z,1780
2016-06-29T08:09:43.235Z,1960
2016-06-29T08:10:44.360Z,1060
2016-06-29T08:11:44.420Z,764
2016-06-29T08:12:43.898Z,876
2016-06-29T08:13:44.445Z,1588
2016-06-29T08:14:43.348Z,1672
2016-06-29T08:15:43.348Z,1084
2016-06-29T08:16:44.003Z,1100
2016-06-29T08:17:44.553Z,1312
2016-06-29T08:18:43.364Z,2144
2016-06-29T08:19:42.761Z,1352
2016-06-29T08:20:43.413Z,1604
2016-06-29T08:21:44.057Z,1608
2016-06-29T08:22:44.077Z,1304
2016-06-29T08:23:44.721Z,1192
2016-06-29T08:24:44.759Z,1428
2016-06-29T08:25:44.781Z,1392
2016-06-29T08:26:44.186Z,1296
2016-06-29T08:27:42.986Z,1352
2016-06-29T08:28:42.990Z,1272
2016-06-29T08:29:44.937Z,1324
2016-06-29T08:30:44.296Z,1636
2016-06-29T08:31:43.699Z,1588
2016-06-29T08:32:44.594Z,1868
2016-06-29T08:33:44.374Z,2048
2016-06-29T08:34:44.429Z,2352
2016-06-29T08:35:45.069Z,2452
2016-06-29T08:36:44.476Z,2300
2016-06-29T08:37:43.288Z,2464
2016-06-29T08:38:44.514Z,2404
2016-06-29T08:39:43.925Z,1884
2016-06-29T08:40:43.346Z,1712
2016-06-29T08:41:43.989Z,1828
2016-06-29T08:42:44.010Z,1316
2016-06-29T08:43:44.022Z,1348
2016-06-29T08:44:44.065Z,1048
2016-06-29T08:45:45.332Z,1576
2016-06-29T08:46:44.724Z,1980
2016-06-29T08:47:44.756Z,1880
2016-06-29T08:48:44.787Z,2348
2016-06-29T08:49:44.217Z,2624
2016-06-29T08:50:43.598Z,2208
2016-06-29T08:51:44.268Z,1876
2016-06-29T08:52:44.293Z,1244
2016-06-29T08:53:45.613Z,1252
2016-06-29T08:54:45.588Z,1124
2016-06-29T08:55:44.375Z,972
2016-06-29T08:56:45.053Z,1300
2016-06-29T08:57:45.677Z,1244
2016-06-29T08:58:44.447Z,1024
2016-06-29T08:59:45.085Z,884
2016-06-29T09:00:44.521Z,824
2016-06-29T09:01:45.141Z,828
2016-06-29T09:02:45.876Z,832
2016-06-29T09:03:44.630Z,840
2016-06-29T09:04:44.613Z,824
2016-06-29T09:05:45.278Z,840
2016-06-29T09:06:46.003Z,872
2016-06-29T09:07:45.389Z,536
2016-06-29T09:08:45.978Z,544
2016-06-29T09:09:44.759Z,532
2016-06-29T09:10:45.398Z,544
2016-06-29T09:11:45.452Z,640
2016-06-29T09:12:45.466Z,956
2016-06-29T09:13:45.494Z,984
2016-06-29T09:14:45.527Z,976
2016-06-29T09:15:45.556Z,1108
2016-06-29T09:16:46.287Z,1360
2016-06-29T09:17:45.592Z,1676
2016-06-29T09:18:45.073Z,1684
2016-06-29T09:19:46.414Z,2004
2016-06-29T09:20:45.701Z,2600
2016-06-29T09:21:45.139Z,1420
2016-06-29T09:22:45.750Z,1496
2016-06-29T09:23:46.403Z,1804
2016-06-29T09:24:45.806Z,1048
2016-06-29T09:25:44.596Z,1552
2016-06-29T09:26:46.550Z,1500
2016-06-29T09:27:45.958Z,1612
2016-06-29T09:28:45.297Z,1808
2016-06-29T09:29:46.038Z,2304
2016-06-29T09:30:46.109Z,2136
2016-06-29T09:31:45.391Z,2260
2016-06-29T09:32:46.116Z,2204
2016-06-29T09:33:46.692Z,2232
2016-06-29T09:34:46.709Z,2160
2016-06-29T09:35:46.742Z,1960
2016-06-29T09:36:46.830Z,1596
2016-06-29T09:37:46.810Z,1332
2016-06-29T09:38:45.021Z,1580
2016-06-29T09:39:46.287Z,2128
2016-06-29T09:40:45.031Z,1380
2016-06-29T09:41:46.308Z,1580
2016-06-29T09:42:45.723Z,2084
2016-06-29T09:43:46.384Z,2252
2016-06-29T09:44:45.176Z,1996
2016-06-29T09:45:46.425Z,1920
2016-06-29T09:46:45.952Z,1172
2016-06-29T09:47:45.264Z,1300
2016-06-29T09:48:47.157Z,1384
2016-06-29T09:49:46.538Z,1956
2016-06-29T09:50:46.067Z,2360
2016-06-29T09:51:47.222Z,2524
2016-06-29T09:52:46.635Z,1768
2016-06-29T09:53:46.097Z,1572
2016-06-29T09:54:46.725Z,1636
2016-06-29T09:55:46.724Z,1644
2016-06-29T09:56:47.374Z,1380
2016-06-29T09:57:47.407Z,1320
2016-06-29T09:58:46.274Z,1000
2016-06-29T09:59:46.277Z,1348
2016-06-29T10:00:46.276Z,1312
2016-06-29T10:01:46.899Z,808
2016-06-29T10:02:47.575Z,1552
2016-06-29T10:03:47.569Z,2332
2016-06-29T10:04:45.865Z,2544
2016-06-29T10:05:47.030Z,1780
2016-06-29T10:06:47.043Z,1504
2016-06-29T10:07:46.485Z,1468
2016-06-29T10:08:46.720Z,1500
2016-06-29T10:09:47.763Z,1476
2016-06-29T10:10:47.186Z,1500
2016-06-29T10:11:46.594Z,1380
2016-06-29T10:12:46.618Z,1488
2016-06-29T10:13:47.291Z,1368
2016-06-29T10:14:46.716Z,1376
2016-06-29T10:15:46.708Z,1460
2016-06-29T10:16:47.987Z,1428
2016-06-29T10:17:47.382Z,1300
2016-06-29T10:18:48.149Z,1488
2016-06-29T10:19:47.442Z,1364
2016-06-29T10:20:47.465Z,1528
2016-06-29T10:21:48.178Z,1752
2016-06-29T10:22:46.937Z,2068
2016-06-29T10:23:46.970Z,2480
2016-06-29T10:24:47.592Z,2440
2016-06-29T10:25:47.014Z,3420
2016-06-29T10:26:48.359Z,2568
2016-06-29T10:27:48.299Z,2304
2016-06-29T10:28:47.715Z,2072
2016-06-29T10:29:47.755Z,2384
2016-06-29T10:30:47.180Z,2352
2016-06-29T10:31:47.913Z,2048
2016-06-29T10:32:48.547Z,3692
2016-06-29T10:33:47.258Z,2572
2016-06-29T10:34:47.339Z,2960
2016-06-29T10:35:47.990Z,1976
2016-06-29T10:36:48.762Z,2224
2016-06-29T10:37:48.035Z,1648
2016-06-29T10:38:48.163Z,2600
2016-06-29T10:39:48.105Z,1636
2016-06-29T10:40:46.867Z,2456
2016-06-29T10:41:47.512Z,2040
2016-06-29T10:42:48.229Z,2100
2016-06-29T10:43:48.319Z,1644
2016-06-29T10:44:48.273Z,1868
2016-06-29T10:45:48.943Z,1604
2016-06-29T10:46:47.697Z,1884
2016-06-29T10:47:48.990Z,1968
2016-06-29T10:48:48.344Z,2616
2016-06-29T10:49:48.389Z,3796
2016-06-29T10:50:49.043Z,4196
2016-06-29T10:51:49.118Z,2672
2016-06-29T10:52:48.675Z,2384
2016-06-29T10:53:48.062Z,2676
2016-06-29T10:54:48.059Z,1920
2016-06-29T10:55:49.197Z,2492
2016-06-29T10:56:48.703Z,1916
2016-06-29T10:57:48.094Z,2484
2016-06-29T10:58:49.291Z,1660
2016-06-29T10:59:48.238Z,2152
2016-06-29T11:00:48.738Z,3740
2016-06-29T11:01:48.265Z,3468
2016-06-29T11:02:48.267Z,2044
2016-06-29T11:03:49.438Z,1916
2016-06-29T11:04:48.995Z,2884
2016-06-29T11:05:48.922Z,2872
2016-06-29T11:06:48.299Z,3272
2016-06-29T11:07:49.702Z,3728
2016-06-29T11:08:48.388Z,3356
2016-06-29T11:09:48.405Z,3420
2016-06-29T11:10:49.152Z,3460
2016-06-29T11:11:49.729Z,3548
2016-06-29T11:12:49.758Z,3160
2016-06-29T11:13:49.288Z,3188
2016-06-29T11:14:49.254Z,3256
2016-06-29T11:15:49.235Z,3504
2016-06-29T11:16:49.374Z,3384
2016-06-29T11:17:48.703Z,3772
2016-06-29T11:18:48.694Z,3920
2016-06-29T11:19:49.367Z,4472
2016-06-29T11:20:50.015Z,3516
2016-06-29T11:21:48.190Z,3740
2016-06-29T11:22:49.451Z,3772
2016-06-29T11:23:48.262Z,5256
2016-06-29T11:24:49.510Z,4188
2016-06-29T11:25:49.575Z,3360
2016-06-29T11:26:49.602Z,3864
2016-06-29T11:27:49.054Z,3704
2016-06-29T11:28:50.282Z,3708
2016-06-29T11:29:49.690Z,3924
2016-06-29T11:30:49.733Z,5760
2016-06-29T11:31:49.141Z,4344
2016-06-29T11:32:49.244Z,3400
2016-06-29T11:33:50.436Z,4060
2016-06-29T11:34:50.830Z,4036
2016-06-29T11:35:49.905Z,4212
2016-06-29T11:36:49.982Z,4616
2016-06-29T11:37:49.357Z,4644
2016-06-29T11:38:50.013Z,4048
2016-06-29T11:39:48.836Z,3844
2016-06-29T11:40:50.081Z,3672
2016-06-29T11:41:50.139Z,3296
2016-06-29T11:42:49.539Z,3172
2016-06-29T11:43:50.199Z,3120
2016-06-29T11:44:49.724Z,2992
2016-06-29T11:45:50.879Z,3420
2016-06-29T11:46:50.297Z,2148
2016-06-29T11:47:50.921Z,3772
2016-06-29T11:48:50.355Z,2952
2016-06-29T11:49:50.987Z,3988
2016-06-29T11:50:50.466Z,3608
2016-06-29T11:51:49.862Z,2700
2016-06-29T11:52:51.121Z,2700
2016-06-29T11:53:49.904Z,2712
2016-06-29T11:54:50.559Z,3800
2016-06-29T11:55:49.973Z,4092
2016-06-29T11:56:50.622Z,2348
2016-06-29T11:57:50.669Z,3448
2016-06-29T11:58:50.096Z,3100
2016-06-29T11:59:50.114Z,3448
2016-06-29T12:00:50.770Z,2396
2016-06-29T12:01:51.428Z,3432
2016-06-29T12:02:51.458Z,3496
2016-06-29T12:03:50.860Z,3380
2016-06-29T12:04:49.674Z,2904
2016-06-29T12:05:50.926Z,3092
2016-06-29T12:06:50.369Z,3612
2016-06-29T12:07:51.008Z,4260
2016-06-29T12:08:50.421Z,4040
2016-06-29T12:09:51.057Z,4184
2016-06-29T12:10:51.110Z,3504
2016-06-29T12:11:51.145Z,4188
2016-06-29T12:12:51.188Z,4912
2016-06-29T12:13:51.218Z,5112
2016-06-29T12:14:51.237Z,3364
2016-06-29T12:15:51.279Z,2316
2016-06-29T12:16:50.693Z,2416
2016-06-29T12:17:50.128Z,2796
2016-06-29T12:18:50.807Z,2484
2016-06-29T12:19:50.806Z,1936
2016-06-29T12:20:51.448Z,1420
2016-06-29T12:21:52.089Z,1380
2016-06-29T12:22:52.147Z,1708
2016-06-29T12:23:51.848Z,1144
2016-06-29T12:24:50.551Z,2708
2016-06-29T12:25:52.417Z,4412
2016-06-29T12:26:51.799Z,2044
2016-06-29T12:27:51.826Z,5592
2016-06-29T12:28:52.423Z,4856
2016-06-29T12:29:51.859Z,4376
2016-06-29T12:30:52.485Z,3932
2016-06-29T12:31:51.250Z,2008
2016-06-29T12:32:51.317Z,4864
2016-06-29T12:33:51.281Z,4404
2016-06-29T12:34:51.518Z,3880
2016-06-29T12:35:51.943Z,3864
2016-06-29T12:36:51.983Z,3812
2016-06-29T12:37:52.026Z,3836
2016-06-29T12:38:52.045Z,3856
2016-06-29T12:39:52.094Z,3840
2016-06-29T12:40:51.615Z,3844
2016-06-29T12:41:52.161Z,3844
2016-06-29T12:42:52.190Z,3868
2016-06-29T12:43:52.220Z,3868
2016-06-29T12:44:52.894Z,3880
2016-06-29T12:45:52.403Z,3896
2016-06-29T12:46:53.029Z,3772
2016-06-29T12:47:52.567Z,3964
2016-06-29T12:48:52.574Z,3964
2016-06-29T12:49:51.899Z,3956
2016-06-29T12:50:52.481Z,3960
2016-06-29T12:51:53.131Z,3976
2016-06-29T12:52:52.548Z,4040
2016-06-29T12:53:52.587Z,4064
2016-06-29T12:54:51.386Z,4004
2016-06-29T12:55:52.773Z,4228
2016-06-29T12:56:52.093Z,3352
2016-06-29T12:57:52.740Z,5040
2016-06-29T12:58:53.410Z,5016
2016-06-29T12:59:53.431Z,1220
2016-06-29T13:00:52.220Z,1396
2016-06-29T13:01:53.611Z,4856
2016-06-29T13:02:52.375Z,4384
2016-06-29T13:03:53.001Z,4648
2016-06-29T13:04:52.377Z,4656
2016-06-29T13:05:52.421Z,4988
2016-06-29T13:06:53.750Z,3216
2016-06-29T13:07:52.479Z,5280
2016-06-29T13:08:53.152Z,5140
2016-06-29T13:09:51.914Z,5116
2016-06-29T13:10:52.562Z,5272
2016-06-29T13:11:53.222Z,5852
2016-06-29T13:12:53.241Z,5568
2016-06-29T13:13:53.400Z,4872
2016-06-29T13:14:52.123Z,4964
2016-06-29T13:15:52.123Z,5608
2016-06-29T13:16:54.007Z,3504
2016-06-29T13:17:52.826Z,1772
2016-06-29T13:18:53.469Z,2220
2016-06-29T13:19:52.885Z,3500
2016-06-29T13:20:52.293Z,6844
2016-06-29T13:21:53.602Z,6140
2016-06-29T13:22:53.606Z,5648
2016-06-29T13:23:53.029Z,4688
2016-06-29T13:24:54.427Z,5164
2016-06-29T13:25:53.201Z,5800
2016-06-29T13:26:53.157Z,5940
2016-06-29T13:27:53.810Z,2012
2016-06-29T13:28:53.832Z,1520
2016-06-29T13:29:53.279Z,1200
2016-06-29T13:30:54.625Z,1348
2016-06-29T13:31:54.026Z,1812
2016-06-29T13:32:53.361Z,2224
2016-06-29T13:33:53.442Z,7028
2016-06-29T13:34:54.066Z,7156
2016-06-29T13:35:54.800Z,5860
2016-06-29T13:36:54.152Z,5536
2016-06-29T13:37:54.184Z,5668
2016-06-29T13:38:54.220Z,5976
2016-06-29T13:39:53.666Z,6056
2016-06-29T13:40:53.728Z,5616
2016-06-29T13:41:53.762Z,1800
2016-06-29T13:42:54.399Z,2140
2016-06-29T13:43:53.336Z,2884
2016-06-29T13:44:54.489Z,7720
2016-06-29T13:45:53.884Z,6464
2016-06-29T13:46:54.647Z,1676
2016-06-29T13:47:54.084Z,1324
2016-06-29T13:48:55.322Z,2036
2016-06-29T13:49:54.056Z,7048